Terminal Aerodrome Forecast
Issued by NWS

Home | Current Version | Previous Version | Text Only | Print | Product List | Glossary On
Versions: 1 2 3 4 5 6 7 8 9 10 11 12 13 14 15 16 17 18 19 20 21 22 23
000
FTUS46 KSEW 210200 AAB
TAFPAE
TAF AMD
KPAE 210204Z 2102/2124 18013KT P6SM BKN005 OVC012
      TEMPO 2102/2105 18015G25KT 6SM BR
     FM210500 20019G27KT 6SM -RA OVC015
     FM211200 23011KT P6SM -RA OVC015
     FM211700 22011KT P6SM VCSH OVC015
     FM212200 23010KT P6SM VCSH OVC025=

USA.gov is the U.S. government's official web portal to all federal, state and local government web resources and services.